Time;durP1;ratioP1;P1;durP2;ratioP2;P2;SDS_P1;SDS_P2;PMS_P1;PMS_P2;Temp;Humidity;BMP_temperature;BMP_pressure;BME280_temperature;BME280_humidity;BME280_pressure;Samples;Min_cycle;Max_cycle;Signal;HPM_P1;HPM_P2
2023/05/13 00:01:13;;;;;;;9.60;4.68;;;10.00;99.90;;;;;;5049928;28;20051;-75
2023/05/13 00:03:39;;;;;;;8.82;4.65;;;9.90;99.90;;;;;;5048935;28;20087;-74
2023/05/13 00:06:05;;;;;;;12.60;4.25;;;9.90;99.90;;;;;;5061005;28;20622;-77
2023/05/13 00:08:31;;;;;;;7.72;4.68;;;9.80;99.90;;;;;;5056905;28;20029;-74
2023/05/13 00:10:56;;;;;;;10.15;4.80;;;9.80;99.90;;;;;;5058897;28;20029;-73
2023/05/13 00:13:22;;;;;;;8.05;4.90;;;9.80;99.90;;;;;;5063369;28;20120;-72
2023/05/13 00:15:48;;;;;;;7.43;4.57;;;9.70;99.90;;;;;;5056588;28;20104;-74
2023/05/13 00:18:13;;;;;;;7.70;4.55;;;9.60;99.90;;;;;;5056589;28;20054;-74
2023/05/13 00:20:39;;;;;;;8.73;4.65;;;9.60;99.90;;;;;;5061598;28;20440;-80
2023/05/13 00:23:06;;;;;;;10.80;4.70;;;9.50;99.90;;;;;;5060233;28;20024;-74
2023/05/13 00:25:32;;;;;;;10.40;5.13;;;9.50;99.90;;;;;;5059694;28;20078;-74
2023/05/13 00:27:58;;;;;;;9.68;4.65;;;9.40;99.90;;;;;;5055984;28;20629;-74
2023/05/13 00:30:24;;;;;;;62.92;6.97;;;9.30;99.90;;;;;;5062944;28;20049;-74
2023/05/13 00:32:49;;;;;;;103.43;8.52;;;9.20;99.90;;;;;;5057986;28;20040;-74
2023/05/13 00:35:15;;;;;;;10.63;5.72;;;9.10;99.90;;;;;;5060305;28;20111;-73
2023/05/13 00:37:41;;;;;;;8.95;5.47;;;9.10;99.90;;;;;;5063601;28;20028;-77
2023/05/13 00:40:22;;;;;;;10.25;5.57;;;9.00;99.90;;;;;;5067728;28;20043;-73
2023/05/13 00:42:47;;;;;;;13.75;5.50;;;9.10;99.90;;;;;;5062623;28;20048;-73
2023/05/13 00:45:13;;;;;;;11.38;5.80;;;9.00;99.90;;;;;;5065287;28;20395;-75
2023/05/13 00:47:40;;;;;;;9.98;5.50;;;9.10;99.90;;;;;;5059686;28;20036;-80
2023/05/13 00:50:07;;;;;;;9.63;5.25;;;9.10;99.90;;;;;;5059987;28;20025;-74
2023/05/13 00:52:33;;;;;;;11.00;5.22;;;9.10;99.90;;;;;;5064519;28;20480;-76
2023/05/13 00:54:59;;;;;;;8.88;4.93;;;9.20;99.90;;;;;;5056696;28;20040;-74
2023/05/13 00:57:24;;;;;;;7.10;5.05;;;9.10;99.90;;;;;;5066325;28;20056;-73
2023/05/13 00:59:50;;;;;;;8.23;4.75;;;9.20;99.90;;;;;;5066557;28;20033;-73
2023/05/13 01:02:35;;;;;;;8.48;4.78;;;9.20;99.90;;;;;;5061707;28;20052;-74
2023/05/13 01:05:30;;;;;;;13.95;5.07;;;9.20;99.90;;;;;;5059886;28;20099;-73
2023/05/13 01:08:16;;;;;;;8.27;4.82;;;9.20;99.90;;;;;;5064268;28;20024;-74
2023/05/13 01:10:48;;;;;;;10.45;4.93;;;9.20;99.90;;;;;;5055250;28;20037;-80
2023/05/13 01:13:23;;;;;;;8.48;5.35;;;9.10;99.90;;;;;;5057064;28;20488;-74
2023/05/13 01:16:03;;;;;;;10.52;5.43;;;9.10;99.90;;;;;;5062883;28;20029;-78
2023/05/13 01:18:35;;;;;;;9.75;4.88;;;9.10;99.90;;;;;;5063924;28;20369;-76
2023/05/13 01:21:02;;;;;;;100.60;7.30;;;9.10;99.90;;;;;;5055484;28;20479;-73
2023/05/13 01:23:28;;;;;;;300.15;12.75;;;9.00;99.90;;;;;;5058035;28;20020;-74
2023/05/13 01:25:53;;;;;;;8.02;4.68;;;8.90;99.90;;;;;;5062232;28;20172;-75
2023/05/13 01:28:19;;;;;;;9.13;5.07;;;8.80;99.90;;;;;;5055167;28;20400;-74
2023/05/13 01:30:46;;;;;;;10.20;5.20;;;8.80;99.90;;;;;;5058610;28;20068;-74
2023/05/13 01:33:13;;;;;;;9.10;5.22;;;8.80;99.90;;;;;;5055576;28;20033;-73
2023/05/13 01:35:38;;;;;;;11.32;5.38;;;8.80;99.90;;;;;;5060434;28;20385;-78
2023/05/13 01:38:05;;;;;;;11.18;5.25;;;8.80;99.90;;;;;;5065336;28;20036;-73
2023/05/13 01:40:31;;;;;;;10.77;5.68;;;8.80;99.90;;;;;;5066539;28;20373;-73
2023/05/13 01:42:57;;;;;;;13.13;5.25;;;8.80;99.90;;;;;;5056794;28;20025;-73
2023/05/13 01:45:23;;;;;;;8.70;5.13;;;8.80;99.90;;;;;;5066515;28;20734;-75
2023/05/13 01:47:48;;;;;;;11.82;5.50;;;8.80;99.90;;;;;;5062477;28;20068;-73
2023/05/13 01:50:14;;;;;;;10.30;5.35;;;8.80;99.90;;;;;;5059625;28;20045;-73
2023/05/13 01:52:40;;;;;;;8.63;5.32;;;8.80;99.90;;;;;;5063889;28;20143;-77
2023/05/13 01:55:06;;;;;;;9.02;4.97;;;8.80;99.90;;;;;;5052110;28;20033;-75
2023/05/13 01:57:31;;;;;;;7.88;5.03;;;8.80;99.90;;;;;;5067766;28;20028;-74
2023/05/13 01:59:57;;;;;;;10.50;5.78;;;8.80;99.90;;;;;;5066304;28;20118;-73
2023/05/13 02:02:23;;;;;;;9.45;5.40;;;8.80;99.90;;;;;;5059350;28;20056;-73
2023/05/13 02:04:48;;;;;;;9.88;5.82;;;8.80;99.90;;;;;;5061119;28;20116;-76
2023/05/13 02:07:14;;;;;;;7.75;4.43;;;8.90;99.90;;;;;;5056081;28;20086;-74
2023/05/13 02:09:39;;;;;;;8.65;4.97;;;8.90;99.90;;;;;;5063741;28;20524;-74
2023/05/13 02:12:06;;;;;;;9.80;5.07;;;8.90;99.90;;;;;;5055205;28;20539;-74
2023/05/13 02:14:31;;;;;;;9.30;4.85;;;8.90;99.90;;;;;;5058909;28;20029;-77
2023/05/13 02:16:57;;;;;;;10.52;5.00;;;8.90;99.90;;;;;;5063878;28;20107;-73
2023/05/13 02:19:23;;;;;;;15.68;5.43;;;8.90;99.90;;;;;;5053026;28;20031;-73
2023/05/13 02:21:49;;;;;;;8.35;5.10;;;8.90;99.90;;;;;;5059283;28;20036;-75
2023/05/13 02:24:15;;;;;;;8.18;5.15;;;8.80;99.90;;;;;;5050889;28;20078;-73
2023/05/13 02:26:40;;;;;;;13.07;5.10;;;8.80;99.90;;;;;;5063009;28;20034;-73
2023/05/13 02:29:06;;;;;;;11.40;5.28;;;8.80;99.90;;;;;;5057498;28;20033;-73
2023/05/13 02:31:32;;;;;;;9.30;5.57;;;8.90;99.90;;;;;;5068375;28;20059;-72
2023/05/13 02:33:58;;;;;;;10.27;5.28;;;8.90;99.90;;;;;;5066047;28;20134;-72
2023/05/13 02:36:23;;;;;;;9.35;5.55;;;8.90;99.90;;;;;;5055940;28;20028;-75
2023/05/13 02:38:49;;;;;;;10.98;5.53;;;8.90;99.90;;;;;;5053651;28;20052;-74
2023/05/13 02:41:14;;;;;;;11.10;5.20;;;8.90;99.90;;;;;;5062857;28;20089;-73
2023/05/13 02:43:40;;;;;;;11.48;5.35;;;8.90;99.90;;;;;;5064948;28;20469;-79
2023/05/13 02:46:05;;;;;;;11.32;5.50;;;8.90;99.90;;;;;;5062054;28;20029;-75
2023/05/13 02:48:31;;;;;;;9.52;5.45;;;8.90;99.90;;;;;;5055659;28;20461;-73
2023/05/13 02:50:57;;;;;;;9.50;5.15;;;8.90;99.90;;;;;;5058933;28;20040;-73
2023/05/13 02:53:23;;;;;;;10.18;5.60;;;8.90;99.90;;;;;;5059117;28;20096;-73
2023/05/13 02:55:48;;;;;;;9.90;5.38;;;9.00;99.90;;;;;;5064697;28;20028;-79
2023/05/13 02:58:16;;;;;;;7.95;4.82;;;8.90;99.90;;;;;;5062934;28;20761;-74
2023/05/13 03:00:42;;;;;;;9.85;5.05;;;8.90;99.90;;;;;;5067650;28;20672;-73
2023/05/13 03:03:07;;;;;;;11.75;5.47;;;8.80;99.90;;;;;;5059959;28;20103;-73
2023/05/13 03:05:33;;;;;;;9.20;5.30;;;8.90;99.90;;;;;;5062933;28;20029;-72
2023/05/13 03:07:58;;;;;;;9.07;4.90;;;8.90;99.90;;;;;;5062819;28;20028;-75
2023/05/13 03:10:24;;;;;;;14.20;5.50;;;8.90;99.90;;;;;;5065753;28;20032;-73
2023/05/13 03:12:50;;;;;;;9.02;5.60;;;8.90;99.90;;;;;;5063959;28;20032;-77
2023/05/13 03:15:16;;;;;;;12.63;5.57;;;9.00;99.90;;;;;;5060314;28;20445;-74
2023/05/13 03:17:43;;;;;;;10.15;5.53;;;9.00;99.90;;;;;;5060380;28;20508;-73
2023/05/13 03:20:09;;;;;;;10.93;5.88;;;9.00;99.90;;;;;;5054091;28;20179;-75
2023/05/13 03:22:37;;;;;;;9.07;5.30;;;9.00;99.90;;;;;;5066508;28;20036;-77
2023/05/13 03:25:04;;;;;;;8.32;5.22;;;9.00;99.90;;;;;;5063124;28;20138;-74
2023/05/13 03:27:30;;;;;;;10.32;5.70;;;9.00;99.90;;;;;;5052359;28;20583;-74
2023/05/13 03:29:55;;;;;;;9.13;5.43;;;9.10;99.90;;;;;;5061162;28;20129;-73
2023/05/13 03:32:24;;;;;;;10.63;6.03;;;9.10;99.90;;;;;;5064640;28;20039;-78
2023/05/13 03:34:50;;;;;;;11.73;6.00;;;9.20;99.90;;;;;;5065789;28;20040;-80
2023/05/13 03:37:16;;;;;;;11.55;5.80;;;9.20;99.90;;;;;;5054641;28;20061;-75
2023/05/13 03:39:41;;;;;;;11.88;5.82;;;9.20;99.90;;;;;;5056165;28;20069;-74
2023/05/13 03:42:07;;;;;;;8.38;5.45;;;9.10;99.90;;;;;;5062141;28;20303;-73
2023/05/13 03:44:33;;;;;;;9.65;5.70;;;9.20;99.90;;;;;;5060247;28;20032;-73
2023/05/13 03:46:59;;;;;;;12.25;5.47;;;9.20;99.90;;;;;;5064341;28;20033;-74
2023/05/13 03:49:24;;;;;;;8.95;5.60;;;9.20;99.90;;;;;;5056685;28;20058;-73
2023/05/13 03:51:50;;;;;;;11.52;6.10;;;9.10;99.90;;;;;;5055107;28;20387;-80
2023/05/13 03:54:16;;;;;;;10.20;5.75;;;9.20;99.90;;;;;;5060418;28;20104;-76
2023/05/13 03:56:41;;;;;;;11.65;5.75;;;9.20;99.90;;;;;;5066824;28;20395;-75
2023/05/13 03:59:07;;;;;;;9.00;5.65;;;9.20;99.90;;;;;;5061085;28;20090;-73
2023/05/13 04:01:35;;;;;;;11.10;5.88;;;9.30;99.90;;;;;;5062364;28;20095;-73
2023/05/13 04:04:01;;;;;;;11.38;6.43;;;9.30;99.90;;;;;;5056799;28;20036;-73
2023/05/13 04:06:26;;;;;;;10.98;6.35;;;9.20;99.90;;;;;;5060212;28;20021;-73
2023/05/13 04:08:52;;;;;;;10.52;6.68;;;9.20;99.90;;;;;;5055910;28;20025;-80
2023/05/13 04:11:17;;;;;;;14.30;6.00;;;9.20;99.90;;;;;;5060240;28;20028;-73
2023/05/13 04:13:44;;;;;;;11.52;5.50;;;9.30;99.90;;;;;;5054746;28;20033;-72
2023/05/13 04:16:10;;;;;;;10.70;5.70;;;9.20;99.90;;;;;;5056608;28;20021;-74
2023/05/13 04:18:36;;;;;;;13.73;6.43;;;9.20;99.90;;;;;;5055720;28;20056;-75
2023/05/13 04:21:06;;;;;;;15.30;6.07;;;9.20;99.90;;;;;;5063408;28;20097;-74
2023/05/13 04:23:32;;;;;;;10.52;5.88;;;9.30;99.90;;;;;;5059546;28;20036;-73
2023/05/13 04:25:57;;;;;;;11.02;6.07;;;9.30;99.90;;;;;;5055988;28;20041;-74
2023/05/13 04:28:23;;;;;;;10.45;5.65;;;9.30;99.90;;;;;;5054224;28;20112;-74
2023/05/13 04:30:49;;;;;;;13.73;5.85;;;9.30;99.90;;;;;;5061785;28;20040;-74
2023/05/13 04:33:15;;;;;;;9.80;5.65;;;9.30;99.90;;;;;;5053671;28;20036;-74
2023/05/13 04:35:41;;;;;;;9.00;5.38;;;9.30;99.90;;;;;;5056742;28;20061;-75
2023/05/13 04:38:07;;;;;;;10.38;6.07;;;9.40;99.90;;;;;;5052301;28;20146;-74
2023/05/13 04:40:32;;;;;;;11.00;6.22;;;9.40;99.90;;;;;;5056860;28;20025;-73
2023/05/13 04:42:58;;;;;;;9.57;5.53;;;9.30;99.90;;;;;;5059842;28;20071;-76
2023/05/13 04:45:23;;;;;;;11.32;5.65;;;9.30;99.90;;;;;;5060713;28;20094;-74
2023/05/13 04:47:49;;;;;;;10.82;5.90;;;9.30;99.90;;;;;;5067081;28;20571;-74
2023/05/13 04:50:15;;;;;;;9.82;5.85;;;9.20;99.90;;;;;;5056991;28;20029;-74
2023/05/13 04:52:41;;;;;;;12.32;6.60;;;9.20;99.90;;;;;;5058746;28;20037;-74
2023/05/13 04:55:10;;;;;;;12.20;5.72;;;9.20;99.90;;;;;;5059060;28;20384;-74
2023/05/13 04:57:36;;;;;;;9.73;5.95;;;9.20;99.90;;;;;;5065299;28;20033;-75
2023/05/13 05:00:03;;;;;;;11.25;5.93;;;9.20;99.90;;;;;;5057872;28;20039;-78
2023/05/13 05:02:29;;;;;;;11.40;5.95;;;9.20;99.90;;;;;;5066913;28;20052;-76
2023/05/13 05:04:57;;;;;;;13.30;6.32;;;9.20;99.90;;;;;;5056529;28;20083;-79
2023/05/13 05:07:23;;;;;;;10.90;6.30;;;9.20;99.90;;;;;;5062538;28;20029;-73
2023/05/13 05:09:49;;;;;;;14.63;6.10;;;9.20;99.90;;;;;;5059845;28;20025;-74
2023/05/13 05:12:14;;;;;;;11.73;5.78;;;9.30;99.90;;;;;;5059343;28;20032;-74
2023/05/13 05:14:40;;;;;;;13.95;5.60;;;9.20;99.90;;;;;;5058608;28;20492;-74
2023/05/13 05:17:06;;;;;;;12.32;6.30;;;9.20;99.90;;;;;;5053348;28;20029;-73
2023/05/13 05:19:31;;;;;;;8.90;5.72;;;9.30;99.90;;;;;;5067543;28;20035;-72
2023/05/13 05:21:57;;;;;;;13.13;6.25;;;9.40;99.90;;;;;;5054120;28;20372;-76
2023/05/13 05:24:23;;;;;;;11.50;6.43;;;9.50;99.90;;;;;;5061044;28;20051;-73
2023/05/13 05:26:48;;;;;;;10.20;5.32;;;9.60;99.90;;;;;;5065957;28;20182;-76
2023/05/13 05:29:14;;;;;;;12.10;6.38;;;9.60;99.90;;;;;;5050609;28;20154;-74
2023/05/13 05:31:40;;;;;;;12.15;6.20;;;9.60;99.90;;;;;;5055266;28;20055;-75
2023/05/13 05:34:05;;;;;;;11.18;6.13;;;9.60;99.90;;;;;;5062901;28;20032;-74
2023/05/13 05:36:31;;;;;;;16.75;6.80;;;9.50;99.90;;;;;;5056240;28;20024;-72
2023/05/13 05:38:57;;;;;;;9.95;6.32;;;9.50;99.90;;;;;;5056501;28;20082;-79
2023/05/13 05:41:24;;;;;;;10.95;6.38;;;9.50;99.90;;;;;;5059322;28;20041;-73
2023/05/13 05:43:50;;;;;;;12.73;6.45;;;9.60;99.90;;;;;;5048692;28;20024;-74
2023/05/13 05:46:16;;;;;;;14.98;6.47;;;9.60;99.90;;;;;;5049293;28;20293;-74
2023/05/13 05:48:42;;;;;;;10.75;6.40;;;9.70;99.90;;;;;;5058625;28;20491;-74
2023/05/13 05:51:07;;;;;;;11.02;6.70;;;9.70;99.90;;;;;;5061885;28;20039;-74
2023/05/13 05:53:36;;;;;;;11.20;6.10;;;9.70;99.90;;;;;;5059477;28;20056;-73
2023/05/13 05:56:02;;;;;;;9.80;5.82;;;9.70;99.90;;;;;;5058573;28;20078;-74
2023/05/13 05:58:28;;;;;;;12.85;7.05;;;9.80;99.90;;;;;;5062793;28;20016;-76
2023/05/13 06:00:55;;;;;;;10.18;5.82;;;9.80;99.90;;;;;;5061809;28;20069;-74
2023/05/13 06:03:21;;;;;;;12.00;6.68;;;9.80;99.90;;;;;;5068018;28;20033;-80
2023/05/13 06:05:47;;;;;;;12.40;6.28;;;9.80;99.90;;;;;;5058195;28;20488;-79
2023/05/13 06:08:12;;;;;;;10.98;6.60;;;9.90;99.90;;;;;;5063020;28;20423;-73
2023/05/13 06:10:38;;;;;;;10.43;6.30;;;9.90;99.90;;;;;;5058353;28;20480;-73
2023/05/13 06:13:04;;;;;;;12.77;6.72;;;10.00;99.90;;;;;;5068357;28;20024;-74
2023/05/13 06:15:29;;;;;;;10.75;6.35;;;10.10;99.90;;;;;;5057756;28;20043;-75
2023/05/13 06:17:56;;;;;;;11.10;6.15;;;10.10;99.90;;;;;;5055097;28;20124;-73
2023/05/13 06:20:22;;;;;;;13.27;6.65;;;10.20;99.90;;;;;;5056272;28;20123;-77
2023/05/13 06:22:47;;;;;;;14.15;6.38;;;10.20;99.90;;;;;;5064813;28;20127;-76
2023/05/13 06:25:13;;;;;;;12.68;6.40;;;10.20;99.90;;;;;;5065335;28;20108;-73
2023/05/13 06:27:39;;;;;;;10.98;6.10;;;10.30;99.90;;;;;;5060083;28;20524;-74
2023/05/13 06:30:05;;;;;;;11.13;6.13;;;10.30;99.90;;;;;;5065680;28;20086;-72
2023/05/13 06:32:31;;;;;;;11.18;6.47;;;10.40;99.90;;;;;;5057398;28;20067;-73
2023/05/13 06:34:57;;;;;;;10.50;6.32;;;10.40;99.90;;;;;;5051622;28;20053;-78
2023/05/13 06:37:22;;;;;;;11.43;6.68;;;10.40;99.90;;;;;;5054282;28;20125;-73
2023/05/13 06:39:48;;;;;;;13.95;6.72;;;10.40;99.90;;;;;;5049904;28;20024;-75
2023/05/13 06:42:14;;;;;;;11.43;5.82;;;10.40;99.90;;;;;;5051872;28;20044;-75
2023/05/13 06:44:39;;;;;;;11.00;6.28;;;10.50;99.90;;;;;;5057008;28;20040;-80
2023/05/13 06:47:05;;;;;;;11.80;6.57;;;10.50;99.90;;;;;;5060731;28;20032;-80
2023/05/13 06:49:34;;;;;;;13.38;6.03;;;10.60;99.90;;;;;;5053385;28;20033;-74
2023/05/13 06:52:00;;;;;;;11.48;5.60;;;10.70;99.90;;;;;;5050216;28;20901;-79
2023/05/13 06:54:26;;;;;;;9.27;5.38;;;10.70;99.90;;;;;;5048602;28;20086;-75
2023/05/13 06:56:55;;;;;;;11.25;6.22;;;10.80;99.90;;;;;;5054949;28;20427;-74
2023/05/13 06:59:21;;;;;;;9.57;5.38;;;10.80;99.90;;;;;;5055051;28;20043;-74
2023/05/13 07:01:47;;;;;;;12.82;5.57;;;10.90;99.90;;;;;;5059236;28;20063;-73
2023/05/13 07:04:12;;;;;;;9.30;5.82;;;11.00;99.90;;;;;;5068662;28;20028;-74
2023/05/13 07:06:39;;;;;;;12.68;6.07;;;11.00;99.90;;;;;;5066785;28;20721;-77
2023/05/13 07:09:05;;;;;;;9.70;6.00;;;11.00;99.90;;;;;;5062316;28;20443;-70
2023/05/13 07:11:31;;;;;;;13.00;5.72;;;10.90;99.90;;;;;;5058332;28;20366;-73
2023/05/13 07:13:56;;;;;;;14.73;6.10;;;10.90;99.90;;;;;;5060681;28;20032;-73
2023/05/13 07:16:22;;;;;;;11.23;5.68;;;11.00;99.90;;;;;;5066400;28;20171;-75
2023/05/13 07:18:48;;;;;;;9.52;5.78;;;10.90;99.90;;;;;;5068486;28;20140;-73
2023/05/13 07:21:14;;;;;;;9.50;5.53;;;10.80;99.90;;;;;;5066377;28;20464;-71
2023/05/13 07:23:40;;;;;;;8.68;5.35;;;10.80;99.90;;;;;;5066431;28;20121;-72
2023/05/13 07:26:05;;;;;;;14.30;5.50;;;10.80;99.90;;;;;;5058608;28;20063;-70
2023/05/13 07:28:31;;;;;;;14.65;6.28;;;10.90;99.90;;;;;;5062081;28;20025;-71
2023/05/13 07:30:57;;;;;;;8.50;5.40;;;10.90;99.90;;;;;;5057365;28;20459;-69
2023/05/13 07:33:23;;;;;;;9.15;5.63;;;10.80;99.90;;;;;;5057782;28;20025;-72
2023/05/13 07:35:48;;;;;;;10.95;6.13;;;10.80;99.90;;;;;;5064600;28;20459;-72
2023/05/13 07:38:14;;;;;;;10.48;6.05;;;10.80;99.90;;;;;;5066504;28;20161;-72
2023/05/13 07:40:40;;;;;;;10.88;5.72;;;10.90;99.90;;;;;;5063175;28;20522;-72
2023/05/13 07:43:06;;;;;;;10.23;5.68;;;10.90;99.90;;;;;;5060147;28;20040;-72
2023/05/13 07:45:32;;;;;;;8.18;5.10;;;10.90;99.90;;;;;;5063849;28;20032;-72
2023/05/13 07:47:57;;;;;;;9.32;5.80;;;11.00;99.90;;;;;;5063453;28;20024;-72
2023/05/13 07:50:23;;;;;;;10.10;5.70;;;11.00;99.90;;;;;;5059617;28;20630;-72
2023/05/13 07:52:50;;;;;;;10.02;5.18;;;10.90;99.90;;;;;;5066399;28;20493;-72
2023/05/13 07:55:16;;;;;;;9.82;5.68;;;11.00;99.90;;;;;;5065388;28;20791;-72
2023/05/13 07:57:42;;;;;;;10.40;5.85;;;11.00;99.90;;;;;;5057881;28;20036;-72
2023/05/13 08:00:08;;;;;;;9.20;5.78;;;11.10;99.90;;;;;;5056356;28;20048;-72
2023/05/13 08:02:37;;;;;;;11.45;5.93;;;11.10;99.90;;;;;;5062507;28;20053;-72
2023/05/13 08:05:03;;;;;;;11.75;6.72;;;11.20;99.90;;;;;;5066324;28;20110;-72
2023/05/13 08:07:29;;;;;;;15.27;6.80;;;11.20;99.90;;;;;;5061672;28;20391;-72
2023/05/13 08:09:55;;;;;;;18.40;9.55;;;11.00;99.90;;;;;;5055859;28;20034;-71
2023/05/13 08:12:20;;;;;;;29.30;15.32;;;11.00;99.90;;;;;;5067835;28;20033;-72
2023/05/13 08:14:46;;;;;;;15.05;8.70;;;11.00;99.90;;;;;;5060176;28;20032;-71
2023/05/13 08:17:12;;;;;;;17.38;7.93;;;11.10;99.90;;;;;;5062102;28;20057;-72
2023/05/13 08:19:39;;;;;;;13.48;8.50;;;11.10;99.90;;;;;;5061924;28;20384;-71
2023/05/13 08:22:05;;;;;;;16.73;9.52;;;11.20;99.90;;;;;;5059440;28;20041;-71
2023/05/13 08:24:30;;;;;;;15.32;10.00;;;11.30;99.90;;;;;;5052084;28;20052;-70
2023/05/13 08:26:56;;;;;;;11.10;7.30;;;11.20;99.90;;;;;;5067622;28;20353;-71
2023/05/13 08:29:22;;;;;;;10.07;6.20;;;11.10;99.90;;;;;;5059684;28;20501;-71
2023/05/13 08:31:49;;;;;;;13.63;7.38;;;11.10;99.90;;;;;;5058355;28;20450;-71
2023/05/13 08:34:15;;;;;;;8.68;5.70;;;11.20;99.90;;;;;;5063661;28;20629;-72
2023/05/13 08:36:41;;;;;;;19.30;10.15;;;11.30;99.90;;;;;;5064554;28;20052;-71
2023/05/13 08:39:07;;;;;;;13.93;6.85;;;11.30;99.90;;;;;;5065150;28;20409;-71
2023/05/13 08:41:33;;;;;;;10.70;5.82;;;11.40;99.90;;;;;;5062113;28;20040;-71
2023/05/13 08:44:02;;;;;;;10.98;6.80;;;11.30;99.90;;;;;;5066152;28;20751;-71
2023/05/13 08:46:31;;;;;;;13.75;6.70;;;11.40;99.90;;;;;;5056530;28;20021;-71
2023/05/13 08:48:58;;;;;;;10.23;6.65;;;11.50;99.90;;;;;;5056925;28;20036;-71
2023/05/13 08:51:23;;;;;;;11.85;6.88;;;11.50;99.90;;;;;;5064166;28;20540;-72
2023/05/13 08:53:51;;;;;;;25.48;11.65;;;11.40;99.90;;;;;;5062449;28;20051;-71
2023/05/13 08:56:17;;;;;;;29.23;13.88;;;11.30;99.90;;;;;;5059053;28;20103;-71
2023/05/13 08:58:42;;;;;;;24.60;10.43;;;11.30;99.90;;;;;;5066972;28;20075;-71
2023/05/13 09:01:08;;;;;;;17.48;7.65;;;11.40;99.90;;;;;;5063554;28;20416;-72
2023/05/13 09:03:35;;;;;;;19.17;9.10;;;11.50;99.90;;;;;;5058324;28;20043;-71
2023/05/13 09:06:01;;;;;;;13.02;7.05;;;11.50;99.90;;;;;;5062599;28;20059;-71
2023/05/13 09:08:27;;;;;;;26.60;10.70;;;11.50;99.90;;;;;;5057685;28;20020;-71
2023/05/13 09:10:53;;;;;;;17.67;7.80;;;11.40;99.90;;;;;;5055692;28;20382;-71
2023/05/13 09:13:18;;;;;;;23.90;10.57;;;11.40;99.90;;;;;;5053557;28;20486;-72
2023/05/13 09:15:44;;;;;;;20.40;9.27;;;11.40;99.90;;;;;;5055716;28;20035;-74
2023/05/13 09:18:11;;;;;;;32.78;10.48;;;11.40;99.90;;;;;;5056153;28;20547;-73
2023/05/13 09:20:37;;;;;;;15.38;7.43;;;11.50;99.90;;;;;;5049532;28;20056;-71
2023/05/13 09:23:06;;;;;;;17.08;7.53;;;11.50;99.90;;;;;;5049133;28;20111;-70
2023/05/13 09:25:33;;;;;;;23.33;9.52;;;11.40;99.90;;;;;;5050258;28;20079;-70
2023/05/13 09:28:01;;;;;;;31.45;13.15;;;11.40;99.90;;;;;;5053109;28;21427;-71
2023/05/13 09:30:28;;;;;;;19.52;9.50;;;11.50;99.90;;;;;;5052883;28;20028;-72
2023/05/13 09:33:03;;;;;;;17.95;8.68;;;11.50;99.90;;;;;;5062148;28;20032;-70
2023/05/13 09:35:30;;;;;;;15.27;7.30;;;11.60;99.90;;;;;;5061987;28;20112;-70
2023/05/13 09:37:57;;;;;;;16.85;9.25;;;11.70;99.90;;;;;;5063412;28;20024;-72
2023/05/13 09:40:22;;;;;;;17.27;8.27;;;11.80;99.90;;;;;;5060169;28;20028;-70
2023/05/13 09:42:48;;;;;;;12.95;7.28;;;11.80;99.90;;;;;;5055413;28;20083;-70
2023/05/13 09:45:15;;;;;;;14.20;8.40;;;11.80;99.90;;;;;;5062361;28;20507;-70
2023/05/13 09:47:41;;;;;;;13.85;8.18;;;11.70;99.90;;;;;;5063587;28;20024;-70
2023/05/13 09:50:10;;;;;;;14.60;6.25;;;11.90;99.90;;;;;;5062959;28;20075;-70
2023/05/13 09:52:37;;;;;;;11.30;7.10;;;12.10;99.90;;;;;;5066988;28;20021;-70
2023/05/13 09:55:08;;;;;;;12.80;6.93;;;12.10;99.90;;;;;;5066650;28;20054;-70
2023/05/13 09:57:33;;;;;;;12.57;6.22;;;12.10;99.90;;;;;;5067918;28;20068;-71
2023/05/13 10:00:07;;;;;;;12.52;6.80;;;12.20;99.90;;;;;;5063605;28;20422;-70
2023/05/13 10:02:33;;;;;;;10.63;6.72;;;12.30;99.90;;;;;;5059301;28;20294;-70
2023/05/13 10:04:59;;;;;;;13.98;6.68;;;12.50;99.90;;;;;;5062927;28;20392;-71
2023/05/13 10:07:26;;;;;;;9.80;6.20;;;12.70;99.90;;;;;;5062153;28;20029;-70
2023/05/13 10:09:56;;;;;;;14.93;6.32;;;12.80;99.90;;;;;;5071225;28;20086;-70
2023/05/13 10:12:24;;;;;;;10.75;6.15;;;12.90;99.90;;;;;;5062453;28;20526;-70
2023/05/13 10:14:54;;;;;;;11.18;6.00;;;13.10;99.90;;;;;;5059658;28;20040;-70
2023/05/13 10:17:22;;;;;;;8.02;5.00;;;13.20;99.90;;;;;;5057595;28;20033;-70
2023/05/13 10:19:50;;;;;;;9.25;5.70;;;13.20;99.90;;;;;;5062186;28;20044;-70
2023/05/13 10:22:30;;;;;;;17.42;5.13;;;13.50;99.90;;;;;;5068794;28;20095;-70
2023/05/13 10:24:57;;;;;;;9.35;5.30;;;13.40;99.90;;;;;;5066656;28;20117;-70
2023/05/13 10:27:29;;;;;;;7.32;4.30;;;13.10;99.90;;;;;;5064947;28;20032;-70
2023/05/13 10:29:57;;;;;;;12.15;5.35;;;13.10;99.90;;;;;;5060549;28;20040;-70
2023/05/13 10:32:29;;;;;;;7.65;4.85;;;13.10;99.90;;;;;;5056500;28;20029;-70
2023/05/13 10:35:11;;;;;;;11.95;5.00;;;13.20;99.90;;;;;;5061203;28;20056;-71
2023/05/13 10:37:55;;;;;;;8.52;5.20;;;13.10;99.90;;;;;;5057230;28;20082;-70
2023/05/13 10:40:21;;;;;;;8.48;5.10;;;13.00;99.90;;;;;;5054433;28;20056;-70
2023/05/13 10:42:56;;;;;;;9.70;4.93;;;12.80;99.90;;;;;;5063698;28;20072;-70
2023/05/13 10:45:26;;;;;;;9.10;5.00;;;12.80;99.90;;;;;;5052715;28;20051;-70
2023/05/13 10:47:53;;;;;;;7.03;4.70;;;12.80;99.90;;;;;;5064448;28;20029;-70
2023/05/13 10:50:25;;;;;;;6.35;4.20;;;12.80;99.90;;;;;;5061198;28;20036;-70
2023/05/13 10:52:55;;;;;;;8.20;5.10;;;12.80;99.90;;;;;;5054700;28;20055;-70
2023/05/13 10:55:21;;;;;;;;;;;12.80;99.90;;;;;;5068956;28;20024;-70
2023/05/13 10:58:21;;;;;;;7.95;5.07;;;12.90;99.90;;;;;;5058166;28;19954;-70
2023/05/13 11:00:48;;;;;;;9.20;5.18;;;12.70;99.90;;;;;;5018657;28;20409;-70
2023/05/13 11:03:19;;;;;;;7.63;4.80;;;12.70;99.90;;;;;;5054066;28;20025;-72
2023/05/13 11:06:18;;;;;;;7.60;4.75;;;12.60;99.90;;;;;;5058635;28;20496;-70
2023/05/13 11:08:48;;;;;;;8.60;4.53;;;12.70;99.90;;;;;;5061784;28;20377;-70
2023/05/13 11:11:19;;;;;;;7.55;4.95;;;12.80;99.90;;;;;;5062869;28;20159;-71
2023/05/13 11:13:48;;;;;;;8.25;4.68;;;13.10;99.90;;;;;;5060039;28;20067;-70
2023/05/13 11:16:13;;;;;;;9.05;5.10;;;13.40;99.90;;;;;;5063579;28;20358;-72
2023/05/13 11:18:39;;;;;;;7.32;4.40;;;13.40;99.90;;;;;;5067755;28;20037;-70
2023/05/13 11:21:06;;;;;;;8.88;4.65;;;13.50;99.90;;;;;;5061690;28;20032;-70
2023/05/13 11:23:48;;;;;;;6.93;4.38;;;13.70;99.90;;;;;;5061105;28;20377;-70
2023/05/13 11:26:15;;;;;;;8.98;4.55;;;13.80;99.90;;;;;;5055952;28;20515;-72
2023/05/13 11:28:59;;;;;;;7.05;4.07;;;13.90;99.90;;;;;;5051912;28;20033;-70
2023/05/13 11:31:42;;;;;;;7.10;4.40;;;13.90;99.90;;;;;;5063371;28;20097;-70
2023/05/13 11:34:15;;;;;;;7.45;4.40;;;13.80;99.90;;;;;;5053446;28;20108;-70
2023/05/13 11:36:44;;;;;;;13.35;5.20;;;13.50;99.90;;;;;;5061698;28;20053;-70
2023/05/13 11:39:18;;;;;;;7.82;4.10;;;13.30;99.90;;;;;;5061134;28;20119;-70
2023/05/13 11:41:48;;;;;;;8.90;4.53;;;13.20;99.90;;;;;;5059447;28;20028;-70
2023/05/13 11:44:17;;;;;;;7.63;4.80;;;13.10;99.90;;;;;;5058654;28;20040;-70
2023/05/13 11:46:58;;;;;;;8.40;4.38;;;13.10;99.90;;;;;;5050867;28;20384;-70
2023/05/13 11:49:37;;;;;;;11.55;5.47;;;12.80;99.90;;;;;;5052195;28;20383;-71
2023/05/13 11:52:10;;;;;;;13.88;5.55;;;12.80;99.90;;;;;;5069181;28;20038;-71
2023/05/13 11:54:47;;;;;;;11.70;5.65;;;12.70;99.90;;;;;;5059218;28;20032;-70
2023/05/13 11:57:27;;;;;;;14.63;5.85;;;12.70;99.90;;;;;;5060218;28;20024;-70
2023/05/13 11:59:58;;;;;;;11.90;6.00;;;12.70;99.90;;;;;;5069085;28;20071;-70
2023/05/13 12:02:28;;;;;;;11.15;6.20;;;12.80;99.90;;;;;;5063305;28;20048;-70
2023/05/13 12:04:58;;;;;;;14.32;5.63;;;12.90;99.90;;;;;;5063115;28;20071;-71
2023/05/13 12:07:25;;;;;;;;;;;12.80;99.90;;;;;;5067090;28;20048;-70
2023/05/13 12:09:52;;;;;;;17.05;7.43;;;12.80;99.90;;;;;;5069196;28;19912;-70
2023/05/13 12:12:19;;;;;;;23.65;6.85;;;12.80;99.90;;;;;;5059721;28;20388;-72
2023/05/13 12:14:48;;;;;;;12.40;6.68;;;12.80;99.90;;;;;;5065338;28;20032;-70
2023/05/13 12:17:15;;;;;;;16.10;6.50;;;12.70;99.90;;;;;;5055828;28;20033;-70
2023/05/13 12:20:16;;;;;;;9.63;6.18;;;12.70;99.90;;;;;;5057729;28;20033;-70
2023/05/13 12:22:42;;;;;;;15.23;6.18;;;12.70;99.90;;;;;;5050298;28;20041;-70
2023/05/13 12:25:46;;;;;;;11.40;6.40;;;12.60;99.90;;;;;;5061714;28;20027;-69
2023/05/13 12:28:20;;;;;;;12.55;6.55;;;12.50;99.90;;;;;;5053915;28;20017;-70
2023/05/13 12:30:52;;;;;;;12.57;6.88;;;12.50;99.90;;;;;;5062686;28;20036;-70
2023/05/13 12:33:19;;;;;;;10.07;6.88;;;12.50;99.90;;;;;;5061686;28;20032;-70
2023/05/13 12:35:48;;;;;;;11.07;5.75;;;12.60;99.90;;;;;;5068004;28;20028;-70
2023/05/13 12:38:16;;;;;;;18.98;6.15;;;12.60;99.90;;;;;;5057221;28;20216;-70
2023/05/13 12:40:43;;;;;;;10.93;6.28;;;12.60;99.90;;;;;;5059372;28;20028;-70
2023/05/13 12:43:10;;;;;;;20.65;7.35;;;12.50;99.90;;;;;;5058443;28;20063;-71
2023/05/13 12:45:37;;;;;;;10.88;6.40;;;12.60;99.90;;;;;;5061827;28;20021;-70
2023/05/13 12:48:04;;;;;;;12.85;6.70;;;12.50;99.90;;;;;;5057884;28;20024;-70